sensor_id;sensor_type;location;lat;lon;timestamp;pressure;altitude;pressure_sealevel;temperature;humidity
12781;BME280;6454;43.304;24.344;2023-01-26T00:02:19;101262.75;;;1.99;84.19
12781;BME280;6454;43.304;24.344;2023-01-26T00:04:46;101303.78;;;2.19;84.37
12781;BME280;6454;43.304;24.344;2023-01-26T00:07:12;101306.03;;;2.22;84.42
12781;BME280;6454;43.304;24.344;2023-01-26T00:09:39;101300.09;;;2.27;84.48
12781;BME280;6454;43.304;24.344;2023-01-26T00:12:07;101292.84;;;2.27;84.57
12781;BME280;6454;43.304;24.344;2023-01-26T00:14:34;101283.38;;;2.25;84.88
12781;BME280;6454;43.304;24.344;2023-01-26T00:17:16;101289.56;;;2.25;84.79
12781;BME280;6454;43.304;24.344;2023-01-26T00:19:54;101285.66;;;2.21;84.73
12781;BME280;6454;43.304;24.344;2023-01-26T00:22:23;101292.03;;;2.20;84.98
12781;BME280;6454;43.304;24.344;2023-01-26T00:24:50;101277.19;;;2.18;85.13
12781;BME280;6454;43.304;24.344;2023-01-26T00:27:18;101278.84;;;2.19;85.46
12781;BME280;6454;43.304;24.344;2023-01-26T00:29:44;101269.16;;;2.11;85.72
12781;BME280;6454;43.304;24.344;2023-01-26T00:32:11;101268.97;;;2.19;85.83
12781;BME280;6454;43.304;24.344;2023-01-26T00:34:38;101273.91;;;2.29;85.80
12781;BME280;6454;43.304;24.344;2023-01-26T00:37:05;101278.66;;;2.27;85.76
12781;BME280;6454;43.304;24.344;2023-01-26T00:39:32;101273.28;;;2.20;86.00
12781;BME280;6454;43.304;24.344;2023-01-26T00:41:58;101272.88;;;2.17;86.22
12781;BME280;6454;43.304;24.344;2023-01-26T00:44:40;101276.34;;;2.17;86.43
12781;BME280;6454;43.304;24.344;2023-01-26T00:47:09;101269.38;;;2.16;86.45
12781;BME280;6454;43.304;24.344;2023-01-26T00:49:37;101277.19;;;2.11;86.84
12781;BME280;6454;43.304;24.344;2023-01-26T00:52:05;101261.97;;;2.12;86.59
12781;BME280;6454;43.304;24.344;2023-01-26T00:54:32;101268.56;;;2.09;86.74
12781;BME280;6454;43.304;24.344;2023-01-26T00:56:58;101272.44;;;2.13;86.87
12781;BME280;6454;43.304;24.344;2023-01-26T00:59:25;101281.94;;;2.16;86.66
12781;BME280;6454;43.304;24.344;2023-01-26T01:01:55;101274.13;;;2.14;86.51
12781;BME280;6454;43.304;24.344;2023-01-26T01:04:22;101280.91;;;2.17;86.58
12781;BME280;6454;43.304;24.344;2023-01-26T01:06:49;101269.78;;;2.20;86.81
12781;BME280;6454;43.304;24.344;2023-01-26T01:09:16;101277.00;;;2.19;86.44
12781;BME280;6454;43.304;24.344;2023-01-26T01:11:42;101261.13;;;2.18;86.42
12781;BME280;6454;43.304;24.344;2023-01-26T01:14:10;101263.00;;;2.24;86.52
12781;BME280;6454;43.304;24.344;2023-01-26T01:16:38;101264.44;;;2.13;87.03
12781;BME280;6454;43.304;24.344;2023-01-26T01:19:06;101265.25;;;2.20;86.95
12781;BME280;6454;43.304;24.344;2023-01-26T01:21:33;101262.38;;;2.22;86.79
12781;BME280;6454;43.304;24.344;2023-01-26T01:24:00;101257.63;;;2.17;86.90
12781;BME280;6454;43.304;24.344;2023-01-26T01:26:27;101257.22;;;2.20;86.91
12781;BME280;6454;43.304;24.344;2023-01-26T01:28:54;101256.59;;;2.18;86.93
12781;BME280;6454;43.304;24.344;2023-01-26T01:31:22;101239.75;;;2.24;86.90
12781;BME280;6454;43.304;24.344;2023-01-26T01:33:50;101160.84;;;1.68;87.03
12781;BME280;6454;43.304;24.344;2023-01-26T01:36:19;101228.59;;;2.21;87.06
12781;BME280;6454;43.304;24.344;2023-01-26T01:38:46;101218.31;;;2.18;87.30
12781;BME280;6454;43.304;24.344;2023-01-26T01:41:15;101216.84;;;2.15;87.36
12781;BME280;6454;43.304;24.344;2023-01-26T01:43:42;101212.34;;;2.16;87.79
12781;BME280;6454;43.304;24.344;2023-01-26T01:46:15;101208.44;;;2.12;87.72
12781;BME280;6454;43.304;24.344;2023-01-26T01:48:49;101206.34;;;2.07;88.01
12781;BME280;6454;43.304;24.344;2023-01-26T01:51:25;101200.19;;;2.00;88.52
12781;BME280;6454;43.304;24.344;2023-01-26T01:53:58;101195.88;;;1.99;88.84
12781;BME280;6454;43.304;24.344;2023-01-26T01:56:31;101190.91;;;2.03;88.94
12781;BME280;6454;43.304;24.344;2023-01-26T01:58:58;101194.81;;;2.00;89.11
12781;BME280;6454;43.304;24.344;2023-01-26T02:01:27;101198.09;;;2.02;89.30
12781;BME280;6454;43.304;24.344;2023-01-26T02:03:57;101194.84;;;2.07;88.91
12781;BME280;6454;43.304;24.344;2023-01-26T02:06:29;101201.00;;;2.14;88.63
12781;BME280;6454;43.304;24.344;2023-01-26T02:08:59;101205.53;;;2.13;88.31
12781;BME280;6454;43.304;24.344;2023-01-26T02:11:29;101206.75;;;2.17;88.31
12781;BME280;6454;43.304;24.344;2023-01-26T02:13:59;101211.72;;;2.20;88.02
12781;BME280;6454;43.304;24.344;2023-01-26T02:16:28;101211.72;;;2.20;88.01
12781;BME280;6454;43.304;24.344;2023-01-26T02:18:55;101200.81;;;2.28;88.24
12781;BME280;6454;43.304;24.344;2023-01-26T02:21:22;101205.75;;;2.18;87.92
12781;BME280;6454;43.304;24.344;2023-01-26T02:24:06;101201.22;;;2.25;87.68
12781;BME280;6454;43.304;24.344;2023-01-26T02:26:38;101194.81;;;2.20;87.71
12781;BME280;6454;43.304;24.344;2023-01-26T02:29:07;101201.22;;;2.25;87.66
12781;BME280;6454;43.304;24.344;2023-01-26T02:31:36;101197.50;;;2.33;87.49
12781;BME280;6454;43.304;24.344;2023-01-26T02:34:03;101189.88;;;2.30;87.70
12781;BME280;6454;43.304;24.344;2023-01-26T02:36:31;101187.41;;;2.28;87.62
12781;BME280;6454;43.304;24.344;2023-01-26T02:39:15;101190.09;;;2.28;87.78
12781;BME280;6454;43.304;24.344;2023-01-26T02:41:45;101174.25;;;2.27;87.65
12781;BME280;6454;43.304;24.344;2023-01-26T02:44:31;101176.72;;;2.28;87.52
12781;BME280;6454;43.304;24.344;2023-01-26T02:46:58;101178.78;;;2.26;87.95
12781;BME280;6454;43.304;24.344;2023-01-26T02:49:25;101175.50;;;2.24;88.16
12781;BME280;6454;43.304;24.344;2023-01-26T02:52:09;101173.41;;;2.33;88.16
12781;BME280;6454;43.304;24.344;2023-01-26T02:54:35;101177.72;;;2.27;88.00
12781;BME280;6454;43.304;24.344;2023-01-26T02:57:21;101170.94;;;2.31;87.99
12781;BME280;6454;43.304;24.344;2023-01-26T02:59:47;101162.31;;;2.29;88.27
12781;BME280;6454;43.304;24.344;2023-01-26T03:02:14;101148.50;;;2.26;87.98
12781;BME280;6454;43.304;24.344;2023-01-26T03:04:41;101168.25;;;2.38;87.88
12781;BME280;6454;43.304;24.344;2023-01-26T03:07:08;101158.56;;;2.37;87.99
12781;BME280;6454;43.304;24.344;2023-01-26T03:09:35;101131.22;;;2.22;87.52
12781;BME280;6454;43.304;24.344;2023-01-26T03:12:02;101141.06;;;2.41;87.68
12781;BME280;6454;43.304;24.344;2023-01-26T03:14:31;101145.81;;;2.32;87.68
12781;BME280;6454;43.304;24.344;2023-01-26T03:16:58;101149.13;;;2.21;88.06
12781;BME280;6454;43.304;24.344;2023-01-26T03:19:24;101132.44;;;2.26;88.35
12781;BME280;6454;43.304;24.344;2023-01-26T03:22:09;101122.75;;;2.25;88.40
12781;BME280;6454;43.304;24.344;2023-01-26T03:24:54;101109.38;;;2.18;88.78
12781;BME280;6454;43.304;24.344;2023-01-26T03:27:40;101109.16;;;2.20;89.08
12781;BME280;6454;43.304;24.344;2023-01-26T03:30:09;101102.78;;;2.21;89.18
12781;BME280;6454;43.304;24.344;2023-01-26T03:32:37;101101.78;;;2.22;89.11
12781;BME280;6454;43.304;24.344;2023-01-26T03:35:04;101078.72;;;1.94;89.38
12781;BME280;6454;43.304;24.344;2023-01-26T03:37:32;101090.69;;;1.99;89.97
12781;BME280;6454;43.304;24.344;2023-01-26T03:40:01;101093.53;;;1.97;90.32
12781;BME280;6454;43.304;24.344;2023-01-26T03:42:45;101094.78;;;2.01;90.35
12781;BME280;6454;43.304;24.344;2023-01-26T03:45:31;101094.38;;;1.91;91.02
12781;BME280;6454;43.304;24.344;2023-01-26T03:48:15;101108.16;;;2.01;91.18
12781;BME280;6454;43.304;24.344;2023-01-26T03:50:59;101097.66;;;2.06;91.13
12781;BME280;6454;43.304;24.344;2023-01-26T03:53:43;101099.72;;;2.11;90.94
12781;BME280;6454;43.304;24.344;2023-01-26T03:56:27;101096.84;;;2.06;90.99
12781;BME280;6454;43.304;24.344;2023-01-26T03:58:58;101096.44;;;2.09;91.08
12781;BME280;6454;43.304;24.344;2023-01-26T04:01:34;101089.41;;;2.08;91.26
12781;BME280;6454;43.304;24.344;2023-01-26T04:04:02;101082.03;;;2.03;91.63
12781;BME280;6454;43.304;24.344;2023-01-26T04:06:48;101071.31;;;2.03;91.95
12781;BME280;6454;43.304;24.344;2023-01-26T04:09:33;101078.75;;;2.01;92.42
12781;BME280;6454;43.304;24.344;2023-01-26T04:12:01;101086.13;;;2.06;92.46
12781;BME280;6454;43.304;24.344;2023-01-26T04:14:28;101070.50;;;2.09;92.34
12781;BME280;6454;43.304;24.344;2023-01-26T04:17:13;101071.50;;;2.15;92.19
12781;BME280;6454;43.304;24.344;2023-01-26T04:19:58;101069.25;;;2.12;92.48
12781;BME280;6454;43.304;24.344;2023-01-26T04:22:42;101040.88;;;2.04;92.45
12781;BME280;6454;43.304;24.344;2023-01-26T04:25:11;101025.84;;;1.90;92.11
12781;BME280;6454;43.304;24.344;2023-01-26T04:27:38;101056.06;;;2.10;92.31
12781;BME280;6454;43.304;24.344;2023-01-26T04:30:06;101059.34;;;2.12;92.21
12781;BME280;6454;43.304;24.344;2023-01-26T04:32:35;100997.91;;;1.79;91.69
12781;BME280;6454;43.304;24.344;2023-01-26T04:35:02;101051.31;;;2.12;92.02
12781;BME280;6454;43.304;24.344;2023-01-26T04:37:29;101048.25;;;2.02;92.23
12781;BME280;6454;43.304;24.344;2023-01-26T04:39:56;101049.50;;;2.06;92.26
12781;BME280;6454;43.304;24.344;2023-01-26T04:42:22;101051.97;;;2.08;92.18
12781;BME280;6454;43.304;24.344;2023-01-26T04:44:50;101049.09;;;2.09;91.91
12781;BME280;6454;43.304;24.344;2023-01-26T04:47:17;101048.03;;;2.10;91.56
12781;BME280;6454;43.304;24.344;2023-01-26T04:49:45;101016.16;;;1.95;91.45
12781;BME280;6454;43.304;24.344;2023-01-26T04:52:12;101033.84;;;2.03;91.54
12781;BME280;6454;43.304;24.344;2023-01-26T04:54:39;101040.66;;;2.06;91.71
12781;BME280;6454;43.304;24.344;2023-01-26T04:57:06;101029.34;;;2.04;91.39
12781;BME280;6454;43.304;24.344;2023-01-26T04:59:33;101039.41;;;1.95;91.69
12781;BME280;6454;43.304;24.344;2023-01-26T05:02:00;101034.50;;;1.99;91.55
12781;BME280;6454;43.304;24.344;2023-01-26T05:04:27;101034.88;;;2.09;91.03
12781;BME280;6454;43.304;24.344;2023-01-26T05:06:55;101041.47;;;2.00;91.10
12781;BME280;6454;43.304;24.344;2023-01-26T05:09:22;101036.13;;;2.06;91.21
12781;BME280;6454;43.304;24.344;2023-01-26T05:11:49;101031.59;;;2.07;90.90
12781;BME280;6454;43.304;24.344;2023-01-26T05:14:15;101021.50;;;2.02;90.48
12781;BME280;6454;43.304;24.344;2023-01-26T05:16:42;101028.09;;;2.06;89.79
12781;BME280;6454;43.304;24.344;2023-01-26T05:19:09;101026.03;;;1.95;89.81
12781;BME280;6454;43.304;24.344;2023-01-26T05:21:36;101020.28;;;1.98;89.86
12781;BME280;6454;43.304;24.344;2023-01-26T05:24:05;101002.38;;;1.92;89.90
12781;BME280;6454;43.304;24.344;2023-01-26T05:26:32;101003.00;;;1.94;90.01
12781;BME280;6454;43.304;24.344;2023-01-26T05:28:59;101005.28;;;1.90;90.02
12781;BME280;6454;43.304;24.344;2023-01-26T05:31:26;100998.69;;;1.86;90.21
12781;BME280;6454;43.304;24.344;2023-01-26T05:33:53;101005.28;;;1.84;90.08
12781;BME280;6454;43.304;24.344;2023-01-26T05:36:19;100987.19;;;1.86;90.35
12781;BME280;6454;43.304;24.344;2023-01-26T05:38:46;100994.34;;;1.92;90.62
12781;BME280;6454;43.304;24.344;2023-01-26T05:41:14;100993.53;;;1.98;89.91
12781;BME280;6454;43.304;24.344;2023-01-26T05:43:41;100997.00;;;2.05;90.08
12781;BME280;6454;43.304;24.344;2023-01-26T05:46:08;100994.53;;;2.04;89.72
12781;BME280;6454;43.304;24.344;2023-01-26T05:48:34;100998.28;;;1.96;89.72
12781;BME280;6454;43.304;24.344;2023-01-26T05:51:01;101009.19;;;1.88;89.71
12781;BME280;6454;43.304;24.344;2023-01-26T05:53:28;101010.03;;;1.82;90.46
12781;BME280;6454;43.304;24.344;2023-01-26T05:55:55;101003.66;;;1.70;90.36
12781;BME280;6454;43.304;24.344;2023-01-26T05:58:23;101011.88;;;1.81;90.57
12781;BME280;6454;43.304;24.344;2023-01-26T06:00:50;101012.06;;;1.93;90.49
12781;BME280;6454;43.304;24.344;2023-01-26T06:03:16;101011.88;;;1.88;90.70
12781;BME280;6454;43.304;24.344;2023-01-26T06:05:43;101007.91;;;1.97;90.33
12781;BME280;6454;43.304;24.344;2023-01-26T06:08:10;101004.03;;;1.93;90.37
12781;BME280;6454;43.304;24.344;2023-01-26T06:10:37;101008.38;;;1.94;90.14
12781;BME280;6454;43.304;24.344;2023-01-26T06:13:04;101003.63;;;1.96;90.04
12781;BME280;6454;43.304;24.344;2023-01-26T06:15:32;100976.91;;;1.76;89.72
12781;BME280;6454;43.304;24.344;2023-01-26T06:17:59;100995.81;;;1.88;89.70
12781;BME280;6454;43.304;24.344;2023-01-26T06:20:27;100996.41;;;1.90;89.63
12781;BME280;6454;43.304;24.344;2023-01-26T06:22:53;100990.47;;;1.81;90.21
12781;BME280;6454;43.304;24.344;2023-01-26T06:25:24;100980.59;;;1.88;90.00
12781;BME280;6454;43.304;24.344;2023-01-26T06:27:51;100990.25;;;1.89;90.01
12781;BME280;6454;43.304;24.344;2023-01-26T06:30:21;100992.13;;;1.89;90.16
12781;BME280;6454;43.304;24.344;2023-01-26T06:32:50;100990.25;;;1.89;90.06
12781;BME280;6454;43.304;24.344;2023-01-26T06:35:17;100999.09;;;1.90;90.10
12781;BME280;6454;43.304;24.344;2023-01-26T06:37:43;100987.56;;;1.89;89.89
12781;BME280;6454;43.304;24.344;2023-01-26T06:40:11;100991.69;;;1.92;89.79
12781;BME280;6454;43.304;24.344;2023-01-26T06:42:38;100987.56;;;1.96;89.80
12781;BME280;6454;43.304;24.344;2023-01-26T06:45:06;100988.19;;;1.91;89.92
12781;BME280;6454;43.304;24.344;2023-01-26T06:47:33;100987.78;;;1.88;89.82
12781;BME280;6454;43.304;24.344;2023-01-26T06:50:01;100986.13;;;1.93;89.82
12781;BME280;6454;43.304;24.344;2023-01-26T06:52:30;100981.59;;;1.94;90.00
12781;BME280;6454;43.304;24.344;2023-01-26T06:54:58;100967.78;;;1.97;90.09
12781;BME280;6454;43.304;24.344;2023-01-26T06:57:25;100960.81;;;1.96;89.94
12781;BME280;6454;43.304;24.344;2023-01-26T06:59:52;100956.47;;;1.95;90.18
12781;BME280;6454;43.304;24.344;2023-01-26T07:02:21;100959.75;;;1.97;89.95
12781;BME280;6454;43.304;24.344;2023-01-26T07:04:50;100956.06;;;1.98;90.00
12781;BME280;6454;43.304;24.344;2023-01-26T07:07:18;100947.03;;;1.92;89.79
12781;BME280;6454;43.304;24.344;2023-01-26T07:09:45;100910.88;;;1.77;89.87
12781;BME280;6454;43.304;24.344;2023-01-26T07:12:11;100940.00;;;1.98;89.87
12781;BME280;6454;43.304;24.344;2023-01-26T07:14:38;100954.81;;;2.01;89.76
12781;BME280;6454;43.304;24.344;2023-01-26T07:17:05;100953.56;;;2.03;89.68
12781;BME280;6454;43.304;24.344;2023-01-26T07:19:32;100945.59;;;1.97;89.35
12781;BME280;6454;43.304;24.344;2023-01-26T07:21:59;100946.19;;;1.99;89.54
12781;BME280;6454;43.304;24.344;2023-01-26T07:24:27;100942.88;;;2.03;89.87
12781;BME280;6454;43.304;24.344;2023-01-26T07:26:54;100943.28;;;2.07;89.68
12781;BME280;6454;43.304;24.344;2023-01-26T07:29:21;100945.31;;;2.11;89.69
12781;BME280;6454;43.304;24.344;2023-01-26T07:31:48;100939.38;;;2.09;89.48
12781;BME280;6454;43.304;24.344;2023-01-26T07:34:14;100938.72;;;2.07;89.49
12781;BME280;6454;43.304;24.344;2023-01-26T07:36:41;100937.50;;;2.10;89.13
12781;BME280;6454;43.304;24.344;2023-01-26T07:42:16;100933.81;;;2.04;88.19
12781;BME280;6454;43.304;24.344;2023-01-26T07:44:43;100934.88;;;1.97;89.08
12781;BME280;6454;43.304;24.344;2023-01-26T07:47:10;100937.94;;;2.00;89.12
12781;BME280;6454;43.304;24.344;2023-01-26T07:49:37;100936.50;;;2.04;89.28
12781;BME280;6454;43.304;24.344;2023-01-26T07:52:04;100931.06;;;2.17;88.84
12781;BME280;6454;43.304;24.344;2023-01-26T07:54:31;100925.75;;;2.11;88.86
12781;BME280;6454;43.304;24.344;2023-01-26T07:56:57;100932.31;;;2.15;88.92
12781;BME280;6454;43.304;24.344;2023-01-26T07:59:26;100923.28;;;2.16;88.90
12781;BME280;6454;43.304;24.344;2023-01-26T08:01:52;100932.31;;;2.21;88.56
12781;BME280;6454;43.304;24.344;2023-01-26T08:04:19;100924.28;;;2.21;88.19
12781;BME280;6454;43.304;24.344;2023-01-26T08:06:46;100930.00;;;2.31;88.17
12781;BME280;6454;43.304;24.344;2023-01-26T08:09:14;100921.19;;;2.18;87.91
12781;BME280;6454;43.304;24.344;2023-01-26T08:11:40;100930.47;;;2.22;87.67
12781;BME280;6454;43.304;24.344;2023-01-26T08:14:07;100930.84;;;2.25;87.56
12781;BME280;6454;43.304;24.344;2023-01-26T08:16:35;100927.56;;;2.23;87.59
12781;BME280;6454;43.304;24.344;2023-01-26T08:19:02;100879.31;;;1.92;87.53
12781;BME280;6454;43.304;24.344;2023-01-26T08:21:29;100919.94;;;2.27;87.62
12781;BME280;6454;43.304;24.344;2023-01-26T08:23:56;100917.88;;;2.29;87.97
12781;BME280;6454;43.304;24.344;2023-01-26T08:26:26;100912.03;;;2.38;87.92
12781;BME280;6454;43.304;24.344;2023-01-26T08:28:53;100906.09;;;2.36;87.56
12781;BME280;6454;43.304;24.344;2023-01-26T08:31:20;100903.59;;;2.41;87.29
12781;BME280;6454;43.304;24.344;2023-01-26T08:33:49;100907.03;;;2.48;87.18
12781;BME280;6454;43.304;24.344;2023-01-26T08:36:17;100902.72;;;2.47;86.57
12781;BME280;6454;43.304;24.344;2023-01-26T08:38:44;100891.16;;;2.47;86.55
12781;BME280;6454;43.304;24.344;2023-01-26T08:41:11;100900.22;;;2.52;86.60
12781;BME280;6454;43.304;24.344;2023-01-26T08:43:38;100875.69;;;2.18;86.37
12781;BME280;6454;43.304;24.344;2023-01-26T08:46:05;100904.38;;;2.48;86.46
12781;BME280;6454;43.304;24.344;2023-01-26T08:48:32;100887.22;;;2.56;86.12
12781;BME280;6454;43.304;24.344;2023-01-26T08:51:03;100887.81;;;2.58;86.28
12781;BME280;6454;43.304;24.344;2023-01-26T08:53:48;100884.13;;;2.52;86.37
12781;BME280;6454;43.304;24.344;2023-01-26T08:56:15;100885.38;;;2.50;86.36
12781;BME280;6454;43.304;24.344;2023-01-26T08:58:42;100889.06;;;2.55;86.36
12781;BME280;6454;43.304;24.344;2023-01-26T09:01:11;100890.28;;;2.59;85.57
12781;BME280;6454;43.304;24.344;2023-01-26T09:03:39;100888.84;;;2.57;85.86
12781;BME280;6454;43.304;24.344;2023-01-26T09:06:09;100883.28;;;2.58;85.79
12781;BME280;6454;43.304;24.344;2023-01-26T09:08:37;100887.41;;;2.61;85.53
12781;BME280;6454;43.304;24.344;2023-01-26T09:11:05;100884.91;;;2.59;85.79
12781;BME280;6454;43.304;24.344;2023-01-26T09:13:32;100866.78;;;2.62;85.89
12781;BME280;6454;43.304;24.344;2023-01-26T09:16:02;100857.09;;;2.60;85.46
12781;BME280;6454;43.304;24.344;2023-01-26T09:18:29;100854.00;;;2.64;85.78
12781;BME280;6454;43.304;24.344;2023-01-26T09:21:01;100848.97;;;2.74;85.63
12781;BME280;6454;43.304;24.344;2023-01-26T09:23:30;100839.50;;;2.71;85.04
12781;BME280;6454;43.304;24.344;2023-01-26T09:25:57;100840.53;;;2.70;85.01
12781;BME280;6454;43.304;24.344;2023-01-26T09:28:24;100832.22;;;2.53;85.35
12781;BME280;6454;43.304;24.344;2023-01-26T09:30:51;100813.75;;;2.45;85.44
12781;BME280;6454;43.304;24.344;2023-01-26T09:33:17;100830.25;;;2.67;85.47
12781;BME280;6454;43.304;24.344;2023-01-26T09:35:45;100838.25;;;2.74;85.36
12781;BME280;6454;43.304;24.344;2023-01-26T09:38:12;100825.91;;;2.73;85.87
12781;BME280;6454;43.304;24.344;2023-01-26T09:40:47;100825.69;;;2.74;85.78
12781;BME280;6454;43.304;24.344;2023-01-26T09:43:27;100820.97;;;2.70;86.16
12781;BME280;6454;43.304;24.344;2023-01-26T09:46:03;100815.78;;;2.75;86.13
12781;BME280;6454;43.304;24.344;2023-01-26T09:48:38;100812.50;;;2.73;86.31
12781;BME280;6454;43.304;24.344;2023-01-26T09:51:10;100813.84;;;2.82;86.33
12781;BME280;6454;43.304;24.344;2023-01-26T09:53:43;100811.66;;;2.72;86.53
12781;BME280;6454;43.304;24.344;2023-01-26T09:56:18;100807.56;;;2.70;86.98
12781;BME280;6454;43.304;24.344;2023-01-26T09:58:49;100819.84;;;2.84;86.94
12781;BME280;6454;43.304;24.344;2023-01-26T10:01:25;100815.13;;;2.79;87.62
12781;BME280;6454;43.304;24.344;2023-01-26T10:04:00;100815.94;;;2.80;87.87
12781;BME280;6454;43.304;24.344;2023-01-26T10:06:30;100810.56;;;2.80;88.25
12781;BME280;6454;43.304;24.344;2023-01-26T10:08:59;100797.56;;;2.83;88.39
12781;BME280;6454;43.304;24.344;2023-01-26T10:11:31;100783.78;;;2.80;87.91
12781;BME280;6454;43.304;24.344;2023-01-26T10:14:09;100796.16;;;2.81;88.62
12781;BME280;6454;43.304;24.344;2023-01-26T10:16:38;100793.31;;;2.76;88.91
12781;BME280;6454;43.304;24.344;2023-01-26T10:19:11;100767.84;;;2.67;89.11
12781;BME280;6454;43.304;24.344;2023-01-26T10:21:42;100781.84;;;2.69;89.51
12781;BME280;6454;43.304;24.344;2023-01-26T10:24:11;100782.44;;;2.71;89.80
12781;BME280;6454;43.304;24.344;2023-01-26T10:26:39;100780.59;;;2.71;89.91
12781;BME280;6454;43.304;24.344;2023-01-26T10:29:12;100762.84;;;2.70;89.91
12781;BME280;6454;43.304;24.344;2023-01-26T10:31:41;100758.56;;;2.69;90.36
12781;BME280;6454;43.304;24.344;2023-01-26T10:34:12;100745.16;;;2.69;90.61
12781;BME280;6454;43.304;24.344;2023-01-26T10:36:41;100750.28;;;2.71;90.76
12781;BME280;6454;43.304;24.344;2023-01-26T10:39:10;100752.31;;;2.75;90.73
12781;BME280;6454;43.304;24.344;2023-01-26T10:41:39;100707.25;;;2.47;90.66
12781;BME280;6454;43.304;24.344;2023-01-26T10:44:22;100742.41;;;2.76;90.89
12781;BME280;6454;43.304;24.344;2023-01-26T10:47:01;100736.03;;;2.77;91.09
12781;BME280;6454;43.304;24.344;2023-01-26T10:49:29;100730.03;;;2.75;90.96
12781;BME280;6454;43.304;24.344;2023-01-26T10:52:14;100726.19;;;2.71;90.94
12781;BME280;6454;43.304;24.344;2023-01-26T10:54:43;100729.88;;;2.70;91.53
12781;BME280;6454;43.304;24.344;2023-01-26T10:57:17;100724.69;;;2.75;91.43
12781;BME280;6454;43.304;24.344;2023-01-26T10:59:50;100720.59;;;2.72;91.82
12781;BME280;6454;43.304;24.344;2023-01-26T11:02:23;100710.03;;;2.77;91.52
12781;BME280;6454;43.304;24.344;2023-01-26T11:07:43;100704.69;;;2.77;91.38
12781;BME280;6454;43.304;24.344;2023-01-26T11:10:23;100688.16;;;2.80;91.29
12781;BME280;6454;43.304;24.344;2023-01-26T11:13:13;100687.88;;;2.88;90.79
12781;BME280;6454;43.304;24.344;2023-01-26T11:15:46;100685.56;;;2.92;90.65
12781;BME280;6454;43.304;24.344;2023-01-26T11:18:22;100678.78;;;2.89;91.09
12781;BME280;6454;43.304;24.344;2023-01-26T11:20:58;100668.22;;;2.76;91.73
12781;BME280;6454;43.304;24.344;2023-01-26T11:23:42;100661.03;;;2.77;92.20
12781;BME280;6454;43.304;24.344;2023-01-26T11:26:57;100662.13;;;2.69;92.33
12781;BME280;6454;43.304;24.344;2023-01-26T11:29:48;100659.22;;;2.71;92.36
12781;BME280;6454;43.304;24.344;2023-01-26T11:32:23;100658.19;;;2.72;92.86
12781;BME280;6454;43.304;24.344;2023-01-26T11:35:02;100645.53;;;2.60;92.90
12781;BME280;6454;43.304;24.344;2023-01-26T11:37:38;100640.75;;;2.63;93.21
12781;BME280;6454;43.304;24.344;2023-01-26T11:40:20;100630.56;;;2.71;92.99
12781;BME280;6454;43.304;24.344;2023-01-26T11:43:01;100627.31;;;2.69;92.99
12781;BME280;6454;43.304;24.344;2023-01-26T11:45:42;100623.50;;;2.58;93.25
12781;BME280;6454;43.304;24.344;2023-01-26T11:48:20;100609.06;;;2.59;93.20
12781;BME280;6454;43.304;24.344;2023-01-26T11:50:54;100612.25;;;2.50;94.07
12781;BME280;6454;43.304;24.344;2023-01-26T11:53:54;100613.47;;;2.54;94.19
12781;BME280;6454;43.304;24.344;2023-01-26T11:56:34;100610.13;;;2.58;93.94
12781;BME280;6454;43.304;24.344;2023-01-26T11:59:05;100607.78;;;2.62;93.79
12781;BME280;6454;43.304;24.344;2023-01-26T12:01:40;100603.06;;;2.64;93.98
12781;BME280;6454;43.304;24.344;2023-01-26T12:04:13;100602.22;;;2.64;93.93
12781;BME280;6454;43.304;24.344;2023-01-26T12:06:45;100598.78;;;2.75;93.80
12781;BME280;6454;43.304;24.344;2023-01-26T12:09:19;100588.69;;;2.77;93.72
12781;BME280;6454;43.304;24.344;2023-01-26T12:11:52;100591.72;;;2.80;93.43
12781;BME280;6454;43.304;24.344;2023-01-26T12:14:24;100580.47;;;2.90;92.90
12781;BME280;6454;43.304;24.344;2023-01-26T12:19:55;100581.66;;;2.94;91.94
12781;BME280;6454;43.304;24.344;2023-01-26T12:22:30;100578.03;;;2.88;92.37
12781;BME280;6454;43.304;24.344;2023-01-26T12:25:02;100572.22;;;2.91;92.40
12781;BME280;6454;43.304;24.344;2023-01-26T12:27:36;100575.09;;;2.90;92.62
12781;BME280;6454;43.304;24.344;2023-01-26T12:30:20;100571.53;;;2.96;92.56
12781;BME280;6454;43.304;24.344;2023-01-26T12:32:50;100571.97;;;2.93;92.82
12781;BME280;6454;43.304;24.344;2023-01-26T12:35:29;100571.53;;;2.96;92.69
12781;BME280;6454;43.304;24.344;2023-01-26T12:38:02;100573.00;;;2.92;93.25
12781;BME280;6454;43.304;24.344;2023-01-26T12:40:35;100581.34;;;3.02;92.89
12781;BME280;6454;43.304;24.344;2023-01-26T12:43:18;100574.81;;;2.98;92.62
12781;BME280;6454;43.304;24.344;2023-01-26T12:45:51;100578.50;;;2.97;92.60
12781;BME280;6454;43.304;24.344;2023-01-26T12:48:22;100578.09;;;2.82;93.00
12781;BME280;6454;43.304;24.344;2023-01-26T12:50:54;100556.47;;;2.65;93.61
12781;BME280;6454;43.304;24.344;2023-01-26T12:53:24;100563.97;;;2.75;94.15
12781;BME280;6454;43.304;24.344;2023-01-26T12:55:58;100554.94;;;2.87;93.99
12781;BME280;6454;43.304;24.344;2023-01-26T12:58:32;100548.16;;;2.85;94.15
12781;BME280;6454;43.304;24.344;2023-01-26T13:01:01;100542.50;;;2.93;93.93
12781;BME280;6454;43.304;24.344;2023-01-26T13:03:31;100549.03;;;2.97;94.04
12781;BME280;6454;43.304;24.344;2023-01-26T13:06:02;100530.91;;;2.99;93.75
12781;BME280;6454;43.304;24.344;2023-01-26T13:08:49;100531.25;;;3.02;93.56
12781;BME280;6454;43.304;24.344;2023-01-26T13:11:42;100540.09;;;3.03;93.57
12781;BME280;6454;43.304;24.344;2023-01-26T13:14:33;100541.41;;;3.12;93.43
12781;BME280;6454;43.304;24.344;2023-01-26T13:20:29;100534.16;;;3.01;92.98
12781;BME280;6454;43.304;24.344;2023-01-26T13:26:41;100531.16;;;3.09;92.99
12781;BME280;6454;43.304;24.344;2023-01-26T13:29:35;100533.97;;;3.14;92.71
12781;BME280;6454;43.304;24.344;2023-01-26T13:35:24;100516.13;;;3.08;93.05
12781;BME280;6454;43.304;24.344;2023-01-26T13:37:55;100505.41;;;3.08;93.07
12781;BME280;6454;43.304;24.344;2023-01-26T13:40:26;100512.63;;;3.07;93.16